EA1JAY-4
43.21.54N 005.51.34W
IN73BI aprs.fi
zuletzt gehoert:
2021-12-06T17:01:16Z
zuerst gehoert:
2020-07-13T19:34:40Z

APRS Oviedo [IN73BI], 0 Stunde(n), EA1JAY-4 [18:04:26, 0s].
33D00 43.21.63N 005.51.13WIN73BI 0.576km 10°N17:01:43Z33-D-00 Protección Civil REMER / Delegación del Gobierno en Asturias
EA1JBE 43.22.14N 005.50.82WIN73BI 1.611km 18°NNE16:11:44ZDMR ID: 2141722 QRV(3EA1JBE-7)
EA1YR 43.22.09N 005.51.86WIN73BI 1.695km 328°NNW17:02:31ZMMDVM DVS 434.3500/434.3500 CC1
EA1L 43.20.37N 005.51.13WIN73BI 1.752km 177°S17:01:17Zea1l@ure.es V=13.4V,T=??.?C
Wind 000°/000kn, Böen bis 000kn, Temp 12.22c, Regen 0.0mm, letzte 24h 0.0mm, seit 0h 0.0mm, Baro 1021.1h, Hum: 0%(2EA1L-13)
LEHU 43.22.63N 005.49.57WIN73CJ 3.262km 42°NE17:01:13ZHelipuerto del HUCA: LEAS 061630Z 29018KT 260V330 3000 R29/P2000 R11/0650D BR BKN005 BKN010 13/12 Q1023 TEMPO 1500 BKN005=
EA1HWX 43.19.29N 005.50.96WIN73BH 3.782km 175°S16:31:17ZDMO - UHF 439.7250/431.0000 CC11
ED1ZAU 43.23.04N 005.52.75WIN73BJ 3.808km 327°NNW17:02:54ZRD625 438.5000/430.9000 CC1
EA1ABW 43.24.77N 005.47.77WIN73CJ 7.891km 36°NE16:31:09ZMMDVM MMDVM HS Hat 439.8250/439.8250 CC1
LEMR 43.25.83N 005.49.60WIN73CK 8.621km 14°NNE17:01:14ZAerodromo de la Morgal: LEAS 061630Z 29018KT 260V330 3000 R29/P2000 R11/0650D BR BKN005 BKN010 13/12 Q1023 TEMPO 1500 BKN005=
LEGM 43.26.15N 005.49.84WIN73CK 9.147km 12°NNE17:01:14ZHelipuerto de La Morgal: LEAS 061630Z 29018KT 260V330 3000 R29/P2000 R11/0650D BR BKN005 BKN010 13/12 Q1023 TEMPO 1500 BKN005=
EA1IPU 43.26.21N 005.46.62WIN73CK 10.972km 34°NE17:01:16ZMMDVM MMDVM HS Hat 439.8000/439.8000 CC1
EA1IMW 43.14.36N 005.46.93WIN73CF 14.133km 156°SSE17:02:18ZGRUPO RADIO GALENA (GRG) 430.4500/430.4500 CC1
ED1ZAY 43.29.47N 005.56.54WIN73AL 16.738km 335°NNW17:02:55ZRD625 438.3000/430.7000 CC1
EA1JBL 43.12.28N 005.47.42WIN73CE 17.497km 163°SSE17:02:18ZMMDVM DVMega 435.3000/435.3000 CC1
EB1DGC 43.12.60N 005.45.59WIN73CF 17.845km 155°SSE16:31:24ZMMDVM MMDVM HS Hat 433.4500/433.4500 CC1
EA1HWA 43.12.00N 005.47.40WIN73CE 18.023km 163°SSE17:02:03ZMMDVM MMDVM HS Hat 433.4500/433.4500 CC1
ED1ZAS 43.27.52N 005.40.17WIN73DL 18.774km 52°NE17:02:50ZRD985 438.2250/430.6250 CC1
ED1ZAE 43.27.99N 005.40.54WIN73DL 18.927km 49°NE17:01:39Z2m Voice 145.5875 -0.600 Mhz(3ED1ZAE-C)
400 M. PICO SAN MARTIN (GIJON) 13.4V,12.3C(2ED1ZAE-3)
EA1FLQ 43.22.00N 005.36.35WIN73EI 20.037km 86°E16:31:34ZMMDVM DVMega 439.9750/439.9750 CC1
EA1AHA 43.32.72N 005.54.38WIN73BN 21.562km 349°N16:51:12ZWind 293°/013kn, Böen bis 015kn, Temp 14.44c, Regen 0.0mm, letzte 24h 7.9mm, seit 0h 7.9mm, Baro 1024.7h, Hum: 81%(3EA1AHA-13)
EA1RCG 43.09.45N 005.49.78WIN73CD 22.066km 175°S16:30:45ZGRUPO RADIO GALENA (GRG) 430.4500/430.4500 CC1
EA1AQK 43.16.49N 005.35.99WIN73EG 22.362km 113°ESE16:30:34ZMMDVM MMDVM HS Hat 439.8500/439.8500 CC1
EB1TK 43.32.22N 005.42.32WIN73DM 23.478km 31°NNE16:55:16ZWind 271°/008kn, Böen bis 015kn, Temp 13.33c, Regen 0.3mm, letzte 24h 8.9mm, seit 0h 8.9mm, Baro 1025.3h, Hum: 95%(3EB1TK-13)
EC1AIJ 43.19.77N 005.33.49WIN73FH 24.044km 97°E16:30:53ZMMDVM MMDVM HS Hat 432.9800/432.9800 CC1
EA1DZR 43.31.47N 005.40.00WIN73DM 24.089km 39°NE17:02:37ZMMDVM MMDVM HS Dual Hat 432.1000/432.1000 CC2
LEEL 43.32.98N 005.41.71WIN73DN 25.084km 31°NNE17:01:13ZHelipuerto de El Musel: LEAS 061630Z 29018KT 260V330 3000 R29/P2000 R11/0650D BR BKN005 BKN010 13/12 Q1023 TEMPO 1500 BKN005=
EA1DHE 43.33.98N 005.58.57WIN73AN 25.475km 337°NNW17:02:39ZMMDVM DVS 434.3500/434.3500 CC1
EB1GEM 43.30.00N 005.36.07WIN73EM 25.958km 52°NE16:58:11ZWX3in1Plus2.0 U=13.3V,T=??.?C/??.?F(3EB1GEM-3)
ED1ZAD 43.07.90N 005.38.52WIN73ED 30.174km 145°SE16:59:51ZED1ZAD-3 APRS Digi/Igate(3ED1ZAD-3)
EA1HJA 43.28.10N 005.30.45WIN73FL 30.628km 66°ENE17:01:57ZEA1HJA@URE.ES
IN73FL WX3IN1+ 2.0 - V=13.2V,TX TEMP=25.5C(2EA1HJA-2)
EA1FHR 43.28.72N 005.26.41WIN73GL 36.063km 68°ENE16:31:30ZMMDVM MMDVM HS Hat 439.1500/439.1500 CC1
EA1JAY 43.29.33N 005.26.78WIN73GL 36.070km 66°ENE16:30:13Z434.525MHz Nodo TETRA DMO(3EA1JAY-4)
EA1JAY(2EA1JAY-2)
EA1HWD 43.28.96N 005.26.30WIN73GL 36.382km 67°ENE16:31:25Z144.575FM Local frecuency VHF. 434.2500/434.2500 CC1
EC1KV 43.34.01N 006.16.01WIN63UN 40.812km 305°NW16:49:32Z VOLT.=14.5 V - TEMP.=??.? C(3EC1KV-1)
LETN 43.20.05N 006.22.69WIN63TI 42.508km 267°W17:01:12ZAerodromo de La Curiscada (Tineo): LEAS 061630Z 29018KT 260V330 3000 R29/P2000 R11/0650D BR BKN005 BKN010 13/12 Q1023 TEMPO 1500 BKN005=

aprs.pl 5.0.011w DL3EL © 2006-2021 [1191035]